Detall de PIREP

Printer-friendly versionPDF version

[2011/07/19 08:04:00]
Flight IATA:CT1005
Pilot Number:011
Company ICAO:CAT
Aircraft Type:F28/A
PAX:85
Departing Airport: EICK
Destination Airport: EGGP
Alternate Airport:EGNX
Online: VATSIM
Route:ABAGU UP600 DUB UL975 LYNAS
Flight Level:F310
No Slew and time accel
No pause
Crash detect
Detect pilot in Cockpit between each 30 and 45 minutes
08:04 Zero fuel Weight: 60158 Lbs, Fuel Weight: 9127 Lbs
08:04 VATSIM:EICK 190730Z 31010KT 9999 FEW008 BKN014 BKN032 12/10 Q1009 NOSIG
08:04 VATSIM:EGGP 190720Z 28011KT 9999 BKN017 14/12 Q1001
08:05 Parking Brakes off
08:19 Take-off
08:19 Take off Weight: 68705 Lbs
08:19 Wind: 318º @ 014 Knots Heading: 337º
08:19 POS N51º 50´ 44´´ W008º 29´ 37´´
08:19 Flaps:2 at 163 Knots
08:19 Gear Up: 166 Knots
08:20 Flaps:1 at 212 Knots
08:20 Flaps:0 at 217 Knots
08:34 Wind:308º@049 Knots Heading: 031º Ground Speed: 389 Knots Altitude 28526 ft
08:35 TOC
08:35 Fuel Weight: 6409 Lb
08:41 TOD
08:41 Fuel Weight: 6047 Lb
08:49 Wind:317º@042 Knots Heading: 089º Ground Speed: 423 Knots Altitude 18556 ft
08:59 Flaps:1 at 252 Knots
09:02 Flaps:2 at 229 Knots
09:02 Flaps:3 at 201 Knots
09:03 Gear Down: 195 Knots
09:04 Wind:297º@013 Knots Heading: 059º Ground Speed: 196 Knots Altitude 2306 ft
09:05 Flaps:4 at 168 Knots
09:06 Flaps:5 at 153 Knots
09:09 TouchDown:Rate -196 ft/min Speed: 110 Knots
09:09 VATSIM:EGGP 190850Z 29011KT 9999 SCT014 BKN022 15/12 Q1003
09:09 Land
09:09 Wind:298º@013 Knots
09:09 Heading: 267º
09:09 Flight Duration: 00:50
09:09 Landing Weight: 64513 Lbs
09:09 POS N53º 20´ 00´´ W002º 51´ 04´´
09:15 Parking brakes on
09:15 Block to Block Duration: 01:10
09:15 Final Fuel: 4208 Lbls
09:15 Spent Fuel: 4918 Lbls
09:15 Flight Length: 92 NM
09:15 TOD Land Length: 58 NM

Exportar CSV

Powered by Drupal - Modified by Danger4k